createdAt,value
2023-03-24T00:01:28.231Z,4.60
2023-03-24T00:03:57.555Z,4.20
2023-03-24T00:06:26.585Z,4.53
2023-03-24T00:08:56.691Z,3.97
2023-03-24T00:11:26.421Z,4.37
2023-03-24T00:13:58.450Z,3.83
2023-03-24T00:16:27.066Z,4.37
2023-03-24T00:18:55.767Z,4.20
2023-03-24T00:21:26.618Z,4.30
2023-03-24T00:23:58.586Z,4.47
2023-03-24T00:26:28.385Z,4.83
2023-03-24T00:28:58.133Z,4.90
2023-03-24T00:31:27.253Z,5.00
2023-03-24T00:33:56.086Z,4.17
2023-03-24T00:36:29.364Z,4.03
2023-03-24T00:38:59.274Z,4.57
2023-03-24T00:41:29.078Z,4.70
2023-03-24T00:44:00.293Z,4.67
2023-03-24T00:46:29.654Z,3.90
2023-03-24T00:49:05.616Z,4.80
2023-03-24T00:51:40.593Z,4.17
2023-03-24T00:54:14.072Z,4.23
2023-03-24T00:56:43.742Z,4.60
2023-03-24T00:59:13.986Z,4.60
2023-03-24T01:01:43.723Z,4.13
2023-03-24T01:04:12.346Z,4.20
2023-03-24T01:06:41.416Z,4.53
2023-03-24T01:09:12.332Z,4.10
2023-03-24T01:11:42.458Z,4.57
2023-03-24T01:14:12.261Z,4.70
2023-03-24T01:16:42.055Z,4.30
2023-03-24T01:19:10.883Z,3.67
2023-03-24T01:21:42.199Z,4.33
2023-03-24T01:24:13.609Z,3.80
2023-03-24T01:26:42.542Z,4.27
2023-03-24T01:29:11.448Z,4.50
2023-03-24T01:31:40.115Z,4.33
2023-03-24T01:34:08.564Z,4.10
2023-03-24T01:36:36.966Z,4.17
2023-03-24T01:39:05.674Z,4.77
2023-03-24T01:41:39.869Z,4.30
2023-03-24T01:44:32.854Z,5.50
2023-03-24T01:47:02.418Z,4.30
2023-03-24T01:49:36.706Z,4.07
2023-03-24T01:52:10.901Z,4.40
2023-03-24T01:54:43.921Z,4.60
2023-03-24T01:57:21.974Z,4.20
2023-03-24T01:59:55.076Z,5.37
2023-03-24T02:02:46.533Z,4.60
2023-03-24T02:05:23.807Z,4.40
2023-03-24T02:07:59.270Z,4.83
2023-03-24T02:10:27.979Z,5.97
2023-03-24T02:12:58.082Z,6.50
2023-03-24T02:15:30.411Z,4.00
2023-03-24T02:18:08.343Z,2.30
2023-03-24T02:21:30.243Z,2.10
2023-03-24T02:24:32.245Z,1.70
2023-03-24T02:27:18.898Z,1.60
2023-03-24T02:30:44.921Z,1.50
2023-03-24T02:34:16.177Z,1.80
2023-03-24T02:37:28.503Z,1.30
2023-03-24T02:40:18.409Z,1.50
2023-03-24T02:43:18.467Z,1.40
2023-03-24T02:46:03.418Z,1.60
2023-03-24T02:48:41.538Z,1.67
2023-03-24T02:51:17.844Z,1.67
2023-03-24T02:54:02.760Z,1.30
2023-03-24T02:56:40.219Z,1.20
2023-03-24T02:59:23.304Z,1.60
2023-03-24T03:02:02.942Z,1.70
2023-03-24T03:05:00.954Z,1.87
2023-03-24T03:07:33.516Z,1.60
2023-03-24T03:10:08.869Z,1.40
2023-03-24T03:12:39.802Z,1.67
2023-03-24T03:15:13.331Z,2.17
2023-03-24T03:17:49.040Z,2.33
2023-03-24T03:20:24.367Z,3.67
2023-03-24T03:22:58.424Z,3.13
2023-03-24T03:25:34.313Z,2.80
2023-03-24T03:28:07.891Z,2.77
2023-03-24T03:30:42.019Z,2.57
2023-03-24T03:33:18.243Z,3.60
2023-03-24T03:35:53.303Z,2.87
2023-03-24T03:38:30.386Z,2.67
2023-03-24T03:41:01.443Z,3.50
2023-03-24T03:43:37.384Z,3.80
2023-03-24T03:46:08.353Z,2.63
2023-03-24T03:48:40.395Z,3.13
2023-03-24T03:51:13.889Z,2.93
2023-03-24T03:53:52.483Z,3.53
2023-03-24T03:56:25.479Z,3.13
2023-03-24T03:59:07.381Z,3.47
2023-03-24T04:01:42.092Z,3.73
2023-03-24T04:05:06.763Z,3.70
2023-03-24T04:08:21.989Z,4.23
2023-03-24T04:11:30.733Z,5.43
2023-03-24T04:14:58.970Z,5.00
2023-03-24T04:17:54.258Z,5.00
2023-03-24T04:21:13.051Z,6.40
2023-03-24T04:23:55.077Z,5.57
2023-03-24T04:26:34.552Z,5.77
2023-03-24T04:29:11.543Z,5.57
2023-03-24T04:31:49.352Z,6.50
2023-03-24T04:34:22.530Z,7.20
2023-03-24T04:36:56.104Z,5.53
2023-03-24T04:39:43.846Z,6.53
2023-03-24T04:42:23.039Z,5.10
2023-03-24T04:44:52.681Z,5.60
2023-03-24T04:47:53.767Z,5.50
2023-03-24T04:50:53.960Z,5.23
2023-03-24T04:53:22.654Z,4.40
2023-03-24T04:56:14.739Z,5.50
2023-03-24T04:58:59.790Z,5.40
2023-03-24T05:01:30.401Z,5.57
2023-03-24T05:04:25.176Z,4.97
2023-03-24T05:06:54.104Z,5.50
2023-03-24T05:09:27.151Z,5.80
2023-03-24T05:11:55.511Z,5.63
2023-03-24T05:14:25.361Z,4.20
2023-03-24T05:16:54.456Z,5.73
2023-03-24T05:19:25.351Z,5.40
2023-03-24T05:21:54.021Z,5.27
2023-03-24T05:24:22.420Z,4.27
2023-03-24T05:26:51.023Z,4.83
2023-03-24T05:29:21.551Z,4.77
2023-03-24T05:31:50.123Z,3.70
2023-03-24T05:34:20.329Z,4.23
2023-03-24T05:37:12.982Z,3.80
2023-03-24T05:39:41.967Z,3.80
2023-03-24T05:42:23.340Z,3.87
2023-03-24T05:44:51.907Z,4.00
2023-03-24T05:47:27.308Z,3.27
2023-03-24T05:49:56.660Z,3.10
2023-03-24T05:52:28.920Z,3.30
2023-03-24T05:55:09.458Z,3.27
2023-03-24T05:57:38.596Z,2.57
2023-03-24T06:00:27.367Z,3.73
2023-03-24T06:03:04.191Z,2.97
2023-03-24T06:05:46.115Z,3.60
2023-03-24T06:08:17.220Z,2.70
2023-03-24T06:10:45.640Z,3.20
2023-03-24T06:13:14.116Z,3.37
2023-03-24T06:15:46.996Z,3.13
2023-03-24T06:18:35.767Z,3.87
2023-03-24T06:21:14.083Z,3.90
2023-03-24T06:23:46.315Z,3.40
2023-03-24T06:26:19.196Z,3.50
2023-03-24T06:28:54.474Z,3.60
2023-03-24T06:31:24.513Z,3.80
2023-03-24T06:33:54.993Z,4.53
2023-03-24T06:36:25.713Z,4.10
2023-03-24T06:38:56.505Z,3.83
2023-03-24T06:41:26.204Z,3.90
2023-03-24T06:43:58.583Z,4.10
2023-03-24T06:46:27.440Z,3.30
2023-03-24T06:48:56.384Z,3.10
2023-03-24T06:51:24.891Z,3.93
2023-03-24T06:53:53.358Z,4.50
2023-03-24T06:56:25.307Z,3.53
2023-03-24T06:58:58.586Z,3.50
2023-03-24T07:01:30.817Z,4.10
2023-03-24T07:04:17.665Z,3.73
2023-03-24T07:07:10.830Z,4.67
2023-03-24T07:09:45.551Z,3.20
2023-03-24T07:12:15.693Z,4.87
2023-03-24T07:14:44.400Z,3.80
2023-03-24T07:17:13.704Z,3.60
2023-03-24T07:19:56.687Z,3.60
2023-03-24T07:22:45.123Z,3.93
2023-03-24T07:25:27.216Z,3.30
2023-03-24T07:28:04.511Z,3.17
2023-03-24T07:30:39.785Z,4.40
2023-03-24T07:33:12.049Z,3.90
2023-03-24T07:35:41.793Z,3.73
2023-03-24T07:38:11.318Z,3.50
2023-03-24T07:40:40.256Z,3.13
2023-03-24T07:43:10.155Z,3.80
2023-03-24T07:45:58.547Z,4.17
2023-03-24T07:48:30.003Z,4.07
2023-03-24T07:50:58.370Z,3.90
2023-03-24T07:53:53.227Z,3.70
2023-03-24T07:56:41.995Z,4.27
2023-03-24T07:59:14.939Z,4.73
2023-03-24T08:02:03.709Z,4.27
2023-03-24T08:04:54.855Z,3.63
2023-03-24T08:07:53.633Z,3.57
2023-03-24T08:10:24.819Z,5.57
2023-03-24T08:12:53.695Z,4.03
2023-03-24T08:15:24.044Z,3.33
2023-03-24T08:17:52.888Z,3.90
2023-03-24T08:20:24.720Z,4.13
2023-03-24T08:22:54.493Z,4.13
2023-03-24T08:25:25.737Z,3.80
2023-03-24T08:27:54.468Z,4.03
2023-03-24T08:30:26.725Z,3.90
2023-03-24T08:32:58.043Z,3.57
2023-03-24T08:36:01.594Z,4.20
2023-03-24T08:38:31.792Z,3.40
2023-03-24T08:41:02.724Z,5.87
2023-03-24T08:43:32.388Z,4.47
2023-03-24T08:46:03.017Z,4.97
2023-03-24T08:48:32.908Z,4.70
2023-03-24T08:51:01.267Z,4.20
2023-03-24T08:53:29.666Z,4.60
2023-03-24T08:55:58.088Z,4.43
2023-03-24T08:58:27.068Z,4.67
2023-03-24T09:00:55.429Z,4.50
2023-03-24T09:03:26.216Z,4.17
2023-03-24T09:05:58.373Z,3.73
2023-03-24T09:08:27.323Z,3.90
2023-03-24T09:10:55.796Z,3.80
2023-03-24T09:13:24.675Z,3.77
2023-03-24T09:15:55.670Z,4.07
2023-03-24T09:18:25.881Z,3.93
2023-03-24T09:20:54.696Z,4.57
2023-03-24T09:23:24.380Z,3.60
2023-03-24T09:25:54.556Z,3.57
2023-03-24T09:28:23.597Z,3.40
2023-03-24T09:30:52.495Z,3.20
2023-03-24T09:33:21.237Z,3.80
2023-03-24T09:35:59.254Z,3.17
2023-03-24T09:38:29.441Z,3.03
2023-03-24T09:41:02.986Z,3.60
2023-03-24T09:43:39.492Z,2.67
2023-03-24T09:46:15.588Z,4.30
2023-03-24T09:48:49.152Z,3.13
2023-03-24T09:51:24.105Z,3.40
2023-03-24T09:54:01.704Z,4.00
2023-03-24T09:56:32.045Z,3.97
2023-03-24T09:59:06.555Z,3.70
2023-03-24T10:01:36.897Z,3.27
2023-03-24T10:04:08.831Z,3.50
2023-03-24T10:06:42.875Z,4.03
2023-03-24T10:09:24.446Z,3.83
2023-03-24T10:12:11.035Z,4.47
2023-03-24T10:15:05.597Z,4.30
2023-03-24T10:17:49.396Z,5.60
2023-03-24T10:20:33.255Z,4.43
2023-03-24T10:23:21.603Z,6.30
2023-03-24T10:25:57.509Z,6.40
2023-03-24T10:28:33.423Z,6.17
2023-03-24T10:31:06.646Z,6.00
2023-03-24T10:33:37.460Z,5.73
2023-03-24T10:36:12.422Z,6.33
2023-03-24T10:38:42.421Z,6.17
2023-03-24T10:41:17.704Z,5.73
2023-03-24T10:43:47.579Z,6.20
2023-03-24T10:46:19.435Z,6.23
2023-03-24T10:48:49.939Z,5.50
2023-03-24T10:51:21.710Z,6.20
2023-03-24T10:53:52.194Z,6.17
2023-03-24T10:56:40.112Z,5.27
2023-03-24T10:59:28.850Z,4.30
2023-03-24T11:02:00.696Z,4.73
2023-03-24T11:04:32.133Z,4.70
2023-03-24T11:07:07.102Z,3.93
2023-03-24T11:09:43.813Z,3.30
2023-03-24T11:12:24.537Z,3.30
2023-03-24T11:15:07.557Z,3.40
2023-03-24T11:17:47.004Z,3.40
2023-03-24T11:20:22.015Z,3.03
2023-03-24T11:23:12.407Z,3.23
2023-03-24T11:25:46.915Z,3.30
2023-03-24T11:28:20.925Z,4.30
2023-03-24T11:30:51.676Z,3.30
2023-03-24T11:33:35.728Z,4.50
2023-03-24T11:36:33.836Z,3.33
2023-03-24T11:39:11.706Z,3.20
2023-03-24T11:41:45.765Z,3.40
2023-03-24T11:44:21.665Z,4.80
2023-03-24T11:46:54.765Z,3.67
2023-03-24T11:49:28.785Z,4.00
2023-03-24T11:51:57.527Z,3.20
2023-03-24T11:54:33.174Z,3.33
2023-03-24T11:57:10.615Z,4.13
2023-03-24T11:59:47.515Z,3.80
2023-03-24T12:02:26.503Z,3.67
2023-03-24T12:05:21.745Z,3.17
2023-03-24T12:08:46.248Z,3.27
2023-03-24T12:11:22.657Z,3.43
2023-03-24T12:13:53.936Z,3.10
2023-03-24T12:16:47.637Z,3.20
2023-03-24T12:20:05.172Z,2.70
2023-03-24T12:22:51.020Z,3.03
2023-03-24T12:25:32.100Z,2.77
2023-03-24T12:28:20.434Z,2.47
2023-03-24T12:31:04.380Z,2.10
2023-03-24T12:33:47.487Z,2.10
2023-03-24T12:36:32.713Z,2.30
2023-03-24T12:39:09.938Z,1.57
2023-03-24T12:42:10.561Z,1.80
2023-03-24T12:45:26.681Z,1.80
2023-03-24T12:48:37.342Z,1.70
2023-03-24T12:51:19.009Z,1.80
2023-03-24T12:54:05.350Z,2.17
2023-03-24T12:56:42.442Z,2.50
2023-03-24T12:59:17.834Z,1.63
2023-03-24T13:01:51.589Z,1.80
2023-03-24T13:04:27.638Z,1.70
2023-03-24T13:07:03.566Z,1.37
2023-03-24T13:09:46.210Z,1.27
2023-03-24T13:12:18.571Z,2.73
2023-03-24T13:14:58.570Z,1.67
2023-03-24T13:17:34.424Z,1.17
2023-03-24T13:20:08.248Z,1.40
2023-03-24T13:22:38.821Z,1.70
2023-03-24T13:25:21.609Z,1.50
2023-03-24T13:27:54.805Z,1.80
2023-03-24T13:30:35.110Z,1.80
2023-03-24T13:33:12.178Z,2.20
2023-03-24T13:36:14.974Z,1.27
2023-03-24T13:38:48.420Z,1.27
2023-03-24T13:41:24.033Z,2.00
2023-03-24T13:44:00.242Z,1.40
2023-03-24T13:46:29.461Z,2.50
2023-03-24T13:49:00.892Z,1.20
2023-03-24T13:51:34.085Z,1.80
2023-03-24T13:54:08.355Z,1.70
2023-03-24T13:56:40.568Z,1.60
2023-03-24T13:59:32.258Z,1.60
2023-03-24T14:02:24.527Z,1.57
2023-03-24T14:05:06.881Z,1.73
2023-03-24T14:07:47.165Z,1.20
2023-03-24T14:10:42.380Z,1.53
2023-03-24T14:13:38.923Z,1.67
2023-03-24T14:16:45.932Z,1.50
2023-03-24T14:19:31.321Z,1.47
2023-03-24T14:22:11.455Z,2.33
2023-03-24T14:24:43.624Z,1.90
2023-03-24T14:27:35.127Z,2.40
2023-03-24T14:30:14.642Z,1.67
2023-03-24T14:32:47.844Z,1.40
2023-03-24T14:35:31.032Z,2.10
2023-03-24T14:38:03.077Z,1.73
2023-03-24T14:40:40.757Z,1.87
2023-03-24T14:43:22.978Z,1.53
2023-03-24T14:46:01.552Z,1.57
2023-03-24T14:48:57.384Z,1.50
2023-03-24T14:51:39.752Z,1.83
2023-03-24T14:54:16.555Z,1.90
2023-03-24T14:56:53.078Z,1.67
2023-03-24T14:59:36.603Z,1.60
2023-03-24T15:02:17.200Z,1.83
2023-03-24T15:05:33.226Z,1.77
2023-03-24T15:08:13.941Z,1.77
2023-03-24T15:10:50.682Z,2.13
2023-03-24T15:13:34.012Z,1.57
2023-03-24T15:16:06.732Z,2.23
2023-03-24T15:18:38.885Z,1.70
2023-03-24T15:21:22.731Z,2.10
2023-03-24T15:23:51.715Z,1.57
2023-03-24T15:26:23.547Z,2.40
2023-03-24T15:29:07.844Z,1.80
2023-03-24T15:31:37.406Z,1.60
2023-03-24T15:34:26.523Z,2.13
2023-03-24T15:36:58.792Z,2.00
2023-03-24T15:39:30.404Z,1.90
2023-03-24T15:41:58.856Z,2.20
2023-03-24T15:44:31.649Z,2.20
2023-03-24T15:47:01.505Z,1.97
2023-03-24T15:49:34.511Z,1.80
2023-03-24T15:52:06.840Z,1.97
2023-03-24T15:54:41.840Z,2.30
2023-03-24T15:57:19.031Z,1.40
2023-03-24T15:59:51.770Z,1.57
2023-03-24T16:02:33.131Z,1.40
2023-03-24T16:05:12.023Z,1.50
2023-03-24T16:07:42.757Z,1.13
2023-03-24T16:10:32.652Z,1.63
2023-03-24T16:13:19.390Z,1.30
2023-03-24T16:15:56.908Z,1.50
2023-03-24T16:18:32.205Z,2.00
2023-03-24T16:21:01.442Z,1.43
2023-03-24T16:23:30.624Z,1.77
2023-03-24T16:25:59.106Z,1.80
2023-03-24T16:28:27.709Z,1.37
2023-03-24T16:31:03.336Z,1.53
2023-03-24T16:33:32.439Z,1.53
2023-03-24T16:36:01.291Z,1.50
2023-03-24T16:38:29.761Z,1.30
2023-03-24T16:40:58.792Z,1.70
2023-03-24T16:43:27.756Z,1.33
2023-03-24T16:45:57.510Z,1.77
2023-03-24T16:48:26.014Z,1.90
2023-03-24T16:50:56.038Z,1.40
2023-03-24T16:53:24.414Z,4.83
2023-03-24T16:55:52.717Z,2.10
2023-03-24T16:58:21.270Z,2.73
2023-03-24T17:00:50.163Z,1.80
2023-03-24T17:03:20.548Z,2.57
2023-03-24T17:05:51.298Z,2.97
2023-03-24T17:08:20.512Z,2.30
2023-03-24T17:10:53.633Z,2.10
2023-03-24T17:13:24.933Z,2.67
2023-03-24T17:15:53.879Z,2.37
2023-03-24T17:18:23.679Z,2.07
2023-03-24T17:20:52.099Z,1.77
2023-03-24T17:23:21.964Z,1.90
2023-03-24T17:25:50.345Z,3.20
2023-03-24T17:28:19.096Z,2.10
2023-03-24T17:30:47.538Z,2.47
2023-03-24T17:33:16.752Z,1.70
2023-03-24T17:35:47.483Z,3.70
2023-03-24T17:38:17.689Z,4.03
2023-03-24T17:40:47.524Z,2.03
2023-03-24T17:43:16.127Z,1.97
2023-03-24T17:45:44.606Z,2.00
2023-03-24T17:48:12.987Z,3.27
2023-03-24T17:50:41.891Z,1.70
2023-03-24T17:53:13.820Z,2.90
2023-03-24T17:55:42.297Z,1.90
2023-03-24T17:58:10.654Z,1.90
2023-03-24T18:00:39.090Z,2.13
2023-03-24T18:03:07.554Z,2.43
2023-03-24T18:05:35.929Z,1.87
2023-03-24T18:08:04.368Z,2.23
2023-03-24T18:10:36.197Z,2.50
2023-03-24T18:13:05.544Z,2.17
2023-03-24T18:15:34.518Z,1.60
2023-03-24T18:18:03.433Z,2.40
2023-03-24T18:20:32.117Z,1.90
2023-03-24T18:23:01.097Z,2.20
2023-03-24T18:25:30.011Z,1.40
2023-03-24T18:27:59.799Z,2.13
2023-03-24T18:30:28.151Z,2.23
2023-03-24T18:33:01.229Z,1.60
2023-03-24T18:35:30.388Z,2.43
2023-03-24T18:37:58.870Z,1.43
2023-03-24T18:40:27.608Z,1.40
2023-03-24T18:42:55.942Z,1.30
2023-03-24T18:45:25.703Z,1.80
2023-03-24T18:47:54.188Z,1.67
2023-03-24T18:50:22.630Z,1.57
2023-03-24T18:52:51.324Z,22.20
2023-03-24T18:55:20.882Z,23.77
2023-03-24T18:57:49.239Z,4.13
2023-03-24T19:00:20.267Z,2.30
2023-03-24T19:02:50.301Z,5.63
2023-03-24T19:05:18.911Z,3.63
2023-03-24T19:07:48.545Z,2.50
2023-03-24T19:10:16.990Z,1.73
2023-03-24T19:12:45.373Z,2.13
2023-03-24T19:15:14.568Z,4.60
2023-03-24T19:17:43.391Z,4.00
2023-03-24T19:20:14.030Z,5.00
2023-03-24T19:22:42.453Z,3.50
2023-03-24T19:25:11.389Z,3.20
2023-03-24T19:27:39.666Z,2.33
2023-03-24T19:30:10.370Z,3.50
2023-03-24T19:32:38.996Z,3.20
2023-03-24T19:35:08.430Z,4.60
2023-03-24T19:37:38.134Z,3.40
2023-03-24T19:40:11.457Z,2.20
2023-03-24T19:42:41.953Z,5.00
2023-03-24T19:45:12.471Z,2.40
2023-03-24T19:47:40.951Z,2.00
2023-03-24T19:50:11.104Z,3.50
2023-03-24T19:52:43.028Z,2.50
2023-03-24T19:55:12.320Z,2.07
2023-03-24T19:57:41.015Z,1.60
2023-03-24T20:00:14.607Z,4.53
2023-03-24T20:02:43.188Z,4.33
2023-03-24T20:05:11.738Z,4.10
2023-03-24T20:07:41.476Z,3.60
2023-03-24T20:10:11.565Z,3.20
2023-03-24T20:12:39.997Z,4.00
2023-03-24T20:15:10.044Z,4.43
2023-03-24T20:17:39.500Z,4.77
2023-03-24T20:20:11.727Z,4.67
2023-03-24T20:22:45.644Z,9.97
2023-03-24T20:25:17.084Z,2.47
2023-03-24T20:27:47.077Z,2.30
2023-03-24T20:30:20.507Z,3.47
2023-03-24T20:32:49.770Z,2.33
2023-03-24T20:35:18.332Z,2.30
2023-03-24T20:37:48.112Z,3.00
2023-03-24T20:40:16.961Z,2.80
2023-03-24T20:42:45.282Z,3.07
2023-03-24T20:45:13.989Z,3.00
2023-03-24T20:47:42.841Z,5.03
2023-03-24T20:50:12.250Z,3.27
2023-03-24T20:52:41.339Z,4.43
2023-03-24T20:55:12.511Z,2.23
2023-03-24T20:57:41.420Z,2.00
2023-03-24T21:00:14.036Z,2.17
2023-03-24T21:02:44.074Z,2.20
2023-03-24T21:05:12.783Z,5.40
2023-03-24T21:07:43.981Z,7.10
2023-03-24T21:10:14.669Z,2.30
2023-03-24T21:12:54.546Z,6.67
2023-03-24T21:15:26.185Z,2.77
2023-03-24T21:17:55.404Z,2.53
2023-03-24T21:20:26.904Z,2.43
2023-03-24T21:22:55.946Z,3.03
2023-03-24T21:25:28.830Z,3.43
2023-03-24T21:27:58.528Z,6.80
2023-03-24T21:30:28.277Z,3.40
2023-03-24T21:32:58.197Z,10.70
2023-03-24T21:35:26.675Z,3.53
2023-03-24T21:37:56.231Z,5.50
2023-03-24T21:40:27.095Z,4.30
2023-03-24T21:42:55.850Z,4.20
2023-03-24T21:45:24.693Z,4.33
2023-03-24T21:47:55.243Z,3.70
2023-03-24T21:50:24.099Z,3.40
2023-03-24T21:52:54.734Z,3.27
2023-03-24T21:55:27.903Z,3.27
2023-03-24T21:57:56.898Z,2.40
2023-03-24T22:00:30.015Z,2.60
2023-03-24T22:03:01.568Z,2.50
2023-03-24T22:05:29.920Z,2.70
2023-03-24T22:07:58.209Z,2.33
2023-03-24T22:10:29.728Z,2.37
2023-03-24T22:12:58.524Z,1.80
2023-03-24T22:15:26.941Z,3.10
2023-03-24T22:17:55.582Z,2.27
2023-03-24T22:20:28.230Z,2.20
2023-03-24T22:22:56.855Z,2.13
2023-03-24T22:25:25.526Z,2.33
2023-03-24T22:27:56.235Z,2.10
2023-03-24T22:30:25.097Z,1.87
2023-03-24T22:32:53.442Z,2.30
2023-03-24T22:35:23.324Z,2.23
2023-03-24T22:37:51.895Z,1.77
2023-03-24T22:40:20.333Z,2.10
2023-03-24T22:42:48.715Z,2.20
2023-03-24T22:45:18.764Z,2.60
2023-03-24T22:47:47.099Z,2.00
2023-03-24T22:50:15.462Z,2.10
2023-03-24T22:52:43.774Z,2.63
2023-03-24T22:55:12.128Z,2.80
2023-03-24T22:57:40.434Z,2.30
2023-03-24T23:00:11.107Z,2.50
2023-03-24T23:02:40.936Z,1.63
2023-03-24T23:05:10.575Z,2.23
2023-03-24T23:07:39.279Z,2.47
2023-03-24T23:10:11.708Z,2.57
2023-03-24T23:12:42.407Z,1.90
2023-03-24T23:15:14.120Z,3.00
2023-03-24T23:17:44.077Z,2.37
2023-03-24T23:20:15.474Z,2.23
2023-03-24T23:22:44.257Z,2.87
2023-03-24T23:25:13.462Z,3.10
2023-03-24T23:27:42.267Z,2.60
2023-03-24T23:30:14.612Z,2.50
2023-03-24T23:32:47.180Z,2.63
2023-03-24T23:35:17.198Z,3.20
2023-03-24T23:37:45.651Z,3.20
2023-03-24T23:40:15.974Z,3.33
2023-03-24T23:42:46.807Z,2.73
2023-03-24T23:45:18.345Z,2.77
2023-03-24T23:47:51.315Z,3.20
2023-03-24T23:50:20.904Z,2.90
2023-03-24T23:52:49.705Z,2.87
2023-03-24T23:55:21.064Z,3.30
2023-03-24T23:57:50.237Z,3.00
